Time;durP1;ratioP1;P1;durP2;ratioP2;P2;SDS_P1;SDS_P2;PMS_P1;PMS_P2;Temp;Humidity;BMP_temperature;BMP_pressure;BME280_temperature;BME280_humidity;BME280_pressure;Samples;Min_cycle;Max_cycle;Signal;HPM_P1;HPM_P2
2022/09/30 00:01:40;;;;;;;0.10;0.10;;;;;;;;;;5058904;28;20040;-89
2022/09/30 00:04:06;;;;;;;0.10;0.10;;;;;;;;;;5059242;28;20052;-88
2022/09/30 00:06:34;;;;;;;0.10;0.10;;;;;;;;;;5059153;28;20061;-88
2022/09/30 00:09:01;;;;;;;0.10;0.10;;;;;;;;;;5058750;28;20075;-88
2022/09/30 00:11:27;;;;;;;0.10;0.10;;;;;;;;;;5058585;28;20039;-88
2022/09/30 00:13:54;;;;;;;0.10;0.10;;;;;;;;;;5058770;28;20039;-88
2022/09/30 00:16:20;;;;;;;0.10;0.10;;;;;;;;;;5041988;28;20067;-88
2022/09/30 00:18:46;;;;;;;0.10;0.10;;;;;;;;;;5058745;28;20035;-88
2022/09/30 00:21:12;;;;;;;0.10;0.10;;;;;;;;;;5058399;28;20039;-89
2022/09/30 00:23:39;;;;;;;0.10;0.10;;;;;;;;;;5058397;28;20040;-88
2022/09/30 00:26:11;;;;;;;0.10;0.10;;;;;;;;;;5058487;28;20044;-88
2022/09/30 00:28:37;;;;;;;0.10;0.10;;;;;;;;;;5058242;28;20040;-88
2022/09/30 00:31:06;;;;;;;0.10;0.10;;;;;;;;;;5057689;28;20505;-87
2022/09/30 00:33:33;;;;;;;0.10;0.10;;;;;;;;;;5058052;28;20044;-88
2022/09/30 00:35:59;;;;;;;0.10;0.10;;;;;;;;;;5041848;28;20483;-87
2022/09/30 00:38:25;;;;;;;0.10;0.10;;;;;;;;;;5058475;28;20387;-88
2022/09/30 00:40:51;;;;;;;0.10;0.10;;;;;;;;;;5057825;28;20032;-89
2022/09/30 00:43:19;;;;;;;0.10;0.10;;;;;;;;;;5057863;28;20040;-89
2022/09/30 00:45:49;;;;;;;0.10;0.10;;;;;;;;;;5058221;28;20055;-88
2022/09/30 00:48:17;;;;;;;0.10;0.10;;;;;;;;;;5041543;28;20396;-88
2022/09/30 00:50:47;;;;;;;0.10;0.10;;;;;;;;;;5057765;28;20127;-88
2022/09/30 00:53:20;;;;;;;0.10;0.10;;;;;;;;;;5057611;28;20066;-89
2022/09/30 00:55:56;;;;;;;0.10;0.10;;;;;;;;;;5057909;28;20040;-88
2022/09/30 00:58:30;;;;;;;0.10;0.10;;;;;;;;;;5057631;28;20036;-88
2022/09/30 01:00:58;;;;;;;0.10;0.10;;;;;;;;;;5074658;28;20036;-88
2022/09/30 01:03:24;;;;;;;0.10;0.10;;;;;;;;;;5074228;28;20048;-88
2022/09/30 01:05:50;;;;;;;0.10;0.10;;;;;;;;;;5057795;28;20211;-87
2022/09/30 01:08:17;;;;;;;0.10;0.10;;;;;;;;;;5057585;28;20046;-88
2022/09/30 01:10:43;;;;;;;0.10;0.10;;;;;;;;;;5057363;28;20071;-88
2022/09/30 01:13:09;;;;;;;0.10;0.10;;;;;;;;;;5041028;28;20051;-88
2022/09/30 01:15:41;;;;;;;0.10;0.10;;;;;;;;;;5057550;28;20075;-88
2022/09/30 01:18:29;;;;;;;0.10;0.10;;;;;;;;;;5057704;28;20089;-89
2022/09/30 01:21:13;;;;;;;0.10;0.10;;;;;;;;;;5057082;28;20082;-89
2022/09/30 01:24:06;;;;;;;0.10;0.10;;;;;;;;;;5074124;28;20040;-89
2022/09/30 01:26:32;;;;;;;0.10;0.10;;;;;;;;;;5070618;28;20055;-88
2022/09/30 01:29:07;;;;;;;0.10;0.10;;;;;;;;;;5057630;28;20090;-88
2022/09/30 01:31:52;;;;;;;0.10;0.10;;;;;;;;;;5057076;28;20056;-88
2022/09/30 01:34:24;;;;;;;0.10;0.10;;;;;;;;;;5057396;28;20047;-89
2022/09/30 01:37:03;;;;;;;0.10;0.10;;;;;;;;;;5057556;28;20086;-89
2022/09/30 01:39:29;;;;;;;0.10;0.10;;;;;;;;;;5057491;28;20032;-89
2022/09/30 01:41:59;;;;;;;0.10;0.10;;;;;;;;;;5057174;28;20044;-89
2022/09/30 01:44:33;;;;;;;0.10;0.10;;;;;;;;;;5057483;28;20459;-89
2022/09/30 01:47:13;;;;;;;0.10;0.10;;;;;;;;;;5057496;28;20511;-89
2022/09/30 01:49:44;;;;;;;0.10;0.10;;;;;;;;;;5057439;28;20445;-89
2022/09/30 01:52:18;;;;;;;0.10;0.10;;;;;;;;;;5057292;28;20398;-89
2022/09/30 01:54:49;;;;;;;0.10;0.10;;;;;;;;;;5057327;28;20040;-88
2022/09/30 01:57:24;;;;;;;0.10;0.10;;;;;;;;;;5057388;28;20422;-89
2022/09/30 01:59:51;;;;;;;0.10;0.10;;;;;;;;;;5057341;28;20394;-89
2022/09/30 02:02:24;;;;;;;0.10;0.10;;;;;;;;;;5056998;28;20105;-89
2022/09/30 02:04:52;;;;;;;0.10;0.10;;;;;;;;;;5056685;28;20047;-89
2022/09/30 02:07:38;;;;;;;0.10;0.10;;;;;;;;;;5057091;28;20043;-89
2022/09/30 02:10:09;;;;;;;0.10;0.10;;;;;;;;;;5073738;28;20052;-89
2022/09/30 02:12:41;;;;;;;0.10;0.10;;;;;;;;;;5056737;28;20036;-88
2022/09/30 02:15:11;;;;;;;0.10;0.10;;;;;;;;;;5059114;28;20040;-88
2022/09/30 02:17:39;;;;;;;0.10;0.10;;;;;;;;;;5060625;28;20036;-89
2022/09/30 02:20:05;;;;;;;0.30;0.30;;;;;;;;;;5061331;28;20048;-87
2022/09/30 02:22:52;;;;;;;0.10;0.10;;;;;;;;;;5061119;28;20064;-88
2022/09/30 02:25:19;;;;;;;0.10;0.10;;;;;;;;;;5060739;28;20399;-88
2022/09/30 02:27:47;;;;;;;0.10;0.10;;;;;;;;;;5060913;28;20040;-87
2022/09/30 02:30:13;;;;;;;0.10;0.10;;;;;;;;;;5044126;28;20044;-88
2022/09/30 02:32:49;;;;;;;0.10;0.10;;;;;;;;;;5060074;28;20056;-88
2022/09/30 02:35:17;;;;;;;0.10;0.10;;;;;;;;;;5060573;28;20093;-88
2022/09/30 02:37:45;;;;;;;0.10;0.10;;;;;;;;;;5060282;28;20043;-88
2022/09/30 02:40:13;;;;;;;0.10;0.10;;;;;;;;;;5077020;28;20040;-88
2022/09/30 02:42:40;;;;;;;0.10;0.10;;;;;;;;;;5060606;28;20504;-88
2022/09/30 02:45:07;;;;;;;0.10;0.10;;;;;;;;;;5060384;28;20105;-88
2022/09/30 02:47:33;;;;;;;0.10;0.10;;;;;;;;;;5060880;28;20469;-88
2022/09/30 02:50:02;;;;;;;0.10;0.10;;;;;;;;;;5060189;28;20044;-88
2022/09/30 02:52:36;;;;;;;0.68;0.20;;;;;;;;;;5076883;28;20063;-88
2022/09/30 02:55:07;;;;;;;0.10;0.10;;;;;;;;;;5043868;28;20043;-88
2022/09/30 02:57:39;;;;;;;0.10;0.10;;;;;;;;;;5060498;28;20039;-89
2022/09/30 03:00:06;;;;;;;0.10;0.10;;;;;;;;;;5060191;28;20127;-88
2022/09/30 03:02:32;;;;;;;0.10;0.10;;;;;;;;;;5059844;28;20491;-88
2022/09/30 03:04:57;;;;;;;0.10;0.10;;;;;;;;;;5076566;28;20071;-88
2022/09/30 03:07:23;;;;;;;0.10;0.10;;;;;;;;;;5060150;28;20074;-88
2022/09/30 03:09:49;;;;;;;0.10;0.10;;;;;;;;;;5076661;28;20483;-89
2022/09/30 03:12:19;;;;;;;0.10;0.10;;;;;;;;;;5059735;28;20040;-88
2022/09/30 03:14:45;;;;;;;0.20;0.20;;;;;;;;;;5060046;28;20364;-88
2022/09/30 03:17:21;;;;;;;0.10;0.10;;;;;;;;;;5076670;28;20047;-88
2022/09/30 03:20:05;;;;;;;0.10;0.10;;;;;;;;;;5076284;28;20490;-89
2022/09/30 03:22:31;;;;;;;0.10;0.10;;;;;;;;;;5059475;28;20040;-88
2022/09/30 03:25:05;;;;;;;0.10;0.10;;;;;;;;;;5059428;28;20048;-89
2022/09/30 03:27:47;;;;;;;0.10;0.10;;;;;;;;;;5059590;28;20089;-88
2022/09/30 03:30:15;;;;;;;0.10;0.10;;;;;;;;;;5059275;28;20043;-89
2022/09/30 03:33:01;;;;;;;0.10;0.10;;;;;;;;;;5059183;28;20055;-88
2022/09/30 03:35:30;;;;;;;0.10;0.10;;;;;;;;;;5058974;28;20047;-88
2022/09/30 03:37:58;;;;;;;0.10;0.10;;;;;;;;;;5059264;28;20364;-88
2022/09/30 03:40:37;;;;;;;0.10;0.10;;;;;;;;;;5059123;28;20097;-88
2022/09/30 03:43:04;;;;;;;0.10;0.10;;;;;;;;;;5059804;28;20044;-89
2022/09/30 03:45:33;;;;;;;0.10;0.10;;;;;;;;;;5059198;28;20096;-89
2022/09/30 03:48:00;;;;;;;0.10;0.10;;;;;;;;;;5059079;28;20498;-88
2022/09/30 03:50:26;;;;;;;0.10;0.10;;;;;;;;;;5059056;28;20040;-89
2022/09/30 03:52:52;;;;;;;0.10;0.10;;;;;;;;;;5058862;28;20040;-89
2022/09/30 03:55:18;;;;;;;0.10;0.10;;;;;;;;;;5075494;28;20093;-89
2022/09/30 03:57:44;;;;;;;0.10;0.10;;;;;;;;;;5058852;28;20376;-88
2022/09/30 04:00:11;;;;;;;0.10;0.10;;;;;;;;;;5059224;28;20486;-88
2022/09/30 04:02:37;;;;;;;0.10;0.10;;;;;;;;;;5058900;28;20104;-89
2022/09/30 04:05:04;;;;;;;0.10;0.10;;;;;;;;;;5058850;28;20043;-88
2022/09/30 04:07:30;;;;;;;0.10;0.10;;;;;;;;;;5058832;28;20050;-89
2022/09/30 04:09:56;;;;;;;0.10;0.10;;;;;;;;;;5058788;28;20044;-88
2022/09/30 04:12:22;;;;;;;0.10;0.10;;;;;;;;;;5058469;28;20040;-89
2022/09/30 04:14:48;;;;;;;0.10;0.10;;;;;;;;;;5058698;28;20047;-89
2022/09/30 04:17:14;;;;;;;0.20;0.20;;;;;;;;;;5058595;28;20071;-88
2022/09/30 04:19:40;;;;;;;0.10;0.10;;;;;;;;;;5058574;28;20441;-88
2022/09/30 04:22:09;;;;;;;0.10;0.10;;;;;;;;;;5058677;28;20032;-88
2022/09/30 04:24:35;;;;;;;0.10;0.10;;;;;;;;;;5041713;28;20439;-88
2022/09/30 04:27:01;;;;;;;0.10;0.10;;;;;;;;;;5058571;28;20135;-88
2022/09/30 04:29:27;;;;;;;0.10;0.10;;;;;;;;;;5058523;28;20387;-88
2022/09/30 04:31:53;;;;;;;0.10;0.10;;;;;;;;;;5058186;28;20101;-88
2022/09/30 04:34:19;;;;;;;0.10;0.10;;;;;;;;;;5058285;28;20059;-88
2022/09/30 04:36:45;;;;;;;0.10;0.10;;;;;;;;;;5057581;28;20036;-88
2022/09/30 04:39:11;;;;;;;0.10;0.10;;;;;;;;;;5058735;28;20077;-88
2022/09/30 04:41:37;;;;;;;0.10;0.10;;;;;;;;;;5058164;28;20043;-88
2022/09/30 04:44:06;;;;;;;0.10;0.10;;;;;;;;;;5057880;28;20036;-89
2022/09/30 04:46:35;;;;;;;0.10;0.10;;;;;;;;;;5058189;28;20040;-88
2022/09/30 04:49:02;;;;;;;0.10;0.10;;;;;;;;;;5057933;28;20036;-88
2022/09/30 04:51:28;;;;;;;0.10;0.10;;;;;;;;;;5057660;28;20040;-88
2022/09/30 04:53:54;;;;;;;0.10;0.10;;;;;;;;;;5057665;28;20040;-88
2022/09/30 04:56:22;;;;;;;0.10;0.10;;;;;;;;;;5057961;28;20038;-88
2022/09/30 04:58:48;;;;;;;0.10;0.10;;;;;;;;;;5058304;28;20127;-88
2022/09/30 05:01:14;;;;;;;0.10;0.10;;;;;;;;;;5057982;28;20071;-88
2022/09/30 05:03:42;;;;;;;0.20;0.20;;;;;;;;;;5057676;28;20040;-88
2022/09/30 05:06:08;;;;;;;0.10;0.10;;;;;;;;;;5057659;28;20487;-88
2022/09/30 05:08:34;;;;;;;0.10;0.10;;;;;;;;;;5057660;28;20105;-88
2022/09/30 05:11:01;;;;;;;0.10;0.10;;;;;;;;;;5057759;28;20040;-88
2022/09/30 05:13:33;;;;;;;0.10;0.10;;;;;;;;;;5057301;28;20127;-88
2022/09/30 05:16:00;;;;;;;0.10;0.10;;;;;;;;;;5057449;28;20123;-90
2022/09/30 05:18:26;;;;;;;0.10;0.10;;;;;;;;;;5057225;28;20047;-88
2022/09/30 05:20:52;;;;;;;0.10;0.10;;;;;;;;;;5057247;28;20044;-88
2022/09/30 05:23:18;;;;;;;0.10;0.10;;;;;;;;;;5057483;28;20067;-88
2022/09/30 05:25:44;;;;;;;0.10;0.10;;;;;;;;;;5057759;28;20126;-88
2022/09/30 05:28:11;;;;;;;0.10;0.10;;;;;;;;;;5057722;28;20062;-88
2022/09/30 05:30:37;;;;;;;0.10;0.10;;;;;;;;;;5057136;28;20502;-89
2022/09/30 05:33:03;;;;;;;0.10;0.10;;;;;;;;;;5057114;28;20406;-89
2022/09/30 05:35:29;;;;;;;0.10;0.10;;;;;;;;;;5057309;28;20058;-88
2022/09/30 05:37:55;;;;;;;0.10;0.10;;;;;;;;;;5057477;28;20375;-88
2022/09/30 05:40:21;;;;;;;0.10;0.10;;;;;;;;;;5057479;28;20043;-87
2022/09/30 05:42:47;;;;;;;0.10;0.10;;;;;;;;;;5057704;28;20474;-88
2022/09/30 05:45:13;;;;;;;0.10;0.10;;;;;;;;;;5092200;28;20113;-87
2022/09/30 05:47:39;;;;;;;0.10;0.10;;;;;;;;;;5057110;28;20036;-88
2022/09/30 05:50:05;;;;;;;0.10;0.10;;;;;;;;;;5061263;28;20040;-87
2022/09/30 05:52:31;;;;;;;0.10;0.10;;;;;;;;;;5061448;28;20150;-90
2022/09/30 05:54:59;;;;;;;0.10;0.10;;;;;;;;;;5061165;28;20394;-88
2022/09/30 05:57:27;;;;;;;0.10;0.10;;;;;;;;;;5061119;28;20052;-89
2022/09/30 05:59:54;;;;;;;0.15;0.15;;;;;;;;;;5060834;28;20046;-89
2022/09/30 06:02:19;;;;;;;0.10;0.10;;;;;;;;;;5060873;28;20043;-90
2022/09/30 06:04:45;;;;;;;0.10;0.10;;;;;;;;;;5061088;28;20550;-89
2022/09/30 06:07:12;;;;;;;0.10;0.10;;;;;;;;;;5061321;28;20040;-89
2022/09/30 06:09:38;;;;;;;0.10;0.10;;;;;;;;;;5061359;28;20044;-89
2022/09/30 06:12:05;;;;;;;0.10;0.10;;;;;;;;;;5060766;28;20047;-89
2022/09/30 06:14:31;;;;;;;0.10;0.10;;;;;;;;;;5061053;28;20047;-89
2022/09/30 06:16:59;;;;;;;0.10;0.10;;;;;;;;;;5060819;28;20051;-89
2022/09/30 06:19:27;;;;;;;0.10;0.10;;;;;;;;;;5060758;28;20044;-89
2022/09/30 06:21:53;;;;;;;0.10;0.10;;;;;;;;;;5060537;28;20089;-89
2022/09/30 06:24:19;;;;;;;0.10;0.10;;;;;;;;;;5060789;28;20037;-88
2022/09/30 06:26:45;;;;;;;0.20;0.20;;;;;;;;;;5060868;28;20058;-89
2022/09/30 06:29:11;;;;;;;0.10;0.10;;;;;;;;;;5077203;28;20119;-89
2022/09/30 06:31:37;;;;;;;0.10;0.10;;;;;;;;;;5060391;28;20054;-90
2022/09/30 06:34:04;;;;;;;0.10;0.10;;;;;;;;;;5060562;28;20044;-88
2022/09/30 06:36:30;;;;;;;0.10;0.10;;;;;;;;;;5060399;28;20089;-90
2022/09/30 06:38:57;;;;;;;0.10;0.10;;;;;;;;;;5060546;28;20424;-88
2022/09/30 06:41:26;;;;;;;0.10;0.10;;;;;;;;;;5060538;28;20124;-91
2022/09/30 06:43:52;;;;;;;0.10;0.10;;;;;;;;;;5060279;28;20242;-88
2022/09/30 06:46:18;;;;;;;0.10;0.10;;;;;;;;;;5060560;28;20044;-91
2022/09/30 06:48:45;;;;;;;0.10;0.10;;;;;;;;;;5060237;28;20500;-92
2022/09/30 06:51:11;;;;;;;0.10;0.10;;;;;;;;;;5060084;28;20036;-90
2022/09/30 06:53:38;;;;;;;0.10;0.10;;;;;;;;;;5060069;28;20046;-90
2022/09/30 06:56:05;;;;;;;0.10;0.10;;;;;;;;;;5076887;28;20552;-90
2022/09/30 06:58:31;;;;;;;0.10;0.10;;;;;;;;;;5059923;28;20196;-91
2022/09/30 07:00:59;;;;;;;0.10;0.10;;;;;;;;;;5042810;28;20447;-91
2022/09/30 07:03:28;;;;;;;0.10;0.10;;;;;;;;;;5060165;28;20047;-92
2022/09/30 07:05:57;;;;;;;0.10;0.10;;;;;;;;;;5076832;28;20402;-88
2022/09/30 07:08:24;;;;;;;0.10;0.10;;;;;;;;;;5076641;28;20087;-87
2022/09/30 07:10:51;;;;;;;0.10;0.10;;;;;;;;;;5060253;28;20368;-87
2022/09/30 07:13:17;;;;;;;0.10;0.10;;;;;;;;;;5076968;28;20054;-89
2022/09/30 07:15:43;;;;;;;0.10;0.10;;;;;;;;;;5043047;28;20494;-92
2022/09/30 07:18:09;;;;;;;0.10;0.10;;;;;;;;;;5059640;28;20082;-88
2022/09/30 07:20:35;;;;;;;0.10;0.10;;;;;;;;;;5059613;28;20040;-89
2022/09/30 07:23:01;;;;;;;0.10;0.10;;;;;;;;;;5059638;28;20036;-90
2022/09/30 07:25:27;;;;;;;0.10;0.10;;;;;;;;;;5059497;28;20140;-89
2022/09/30 07:27:55;;;;;;;0.10;0.10;;;;;;;;;;5059410;28;20479;-89
2022/09/30 07:30:21;;;;;;;0.10;0.10;;;;;;;;;;5059683;28;20059;-88
2022/09/30 07:32:47;;;;;;;0.10;0.10;;;;;;;;;;5075959;28;20503;-88
2022/09/30 07:35:13;;;;;;;0.10;0.10;;;;;;;;;;5059106;28;20036;-91
2022/09/30 07:37:39;;;;;;;0.10;0.10;;;;;;;;;;5059575;28;20036;-88
2022/09/30 07:40:06;;;;;;;0.10;0.10;;;;;;;;;;5059010;28;20090;-89
2022/09/30 07:42:31;;;;;;;0.10;0.10;;;;;;;;;;5059084;28;20051;-88
2022/09/30 07:44:58;;;;;;;0.15;0.15;;;;;;;;;;5059189;28;20048;-88
2022/09/30 07:47:24;;;;;;;0.10;0.10;;;;;;;;;;5059242;28;20545;-87
2022/09/30 07:49:50;;;;;;;0.10;0.10;;;;;;;;;;5076363;28;20044;-88
2022/09/30 07:52:16;;;;;;;0.10;0.10;;;;;;;;;;5059149;28;20090;-88
2022/09/30 07:54:42;;;;;;;0.10;0.10;;;;;;;;;;5059355;28;20047;-87
2022/09/30 07:57:08;;;;;;;0.10;0.10;;;;;;;;;;5058909;28;20395;-89
2022/09/30 07:59:35;;;;;;;0.10;0.10;;;;;;;;;;5077220;28;20035;-89
2022/09/30 08:02:00;;;;;;;0.10;0.10;;;;;;;;;;5078901;28;20040;-89
2022/09/30 08:04:27;;;;;;;0.10;0.10;;;;;;;;;;5078567;28;20039;-87
2022/09/30 08:06:54;;;;;;;0.10;0.10;;;;;;;;;;5095862;28;20088;-89
2022/09/30 08:09:20;;;;;;;0.10;0.10;;;;;;;;;;5078929;28;20086;-89
2022/09/30 08:11:46;;;;;;;0.10;0.10;;;;;;;;;;5060305;28;20096;-86
2022/09/30 08:14:13;;;;;;;0.10;0.10;;;;;;;;;;5062281;28;20367;-87
2022/09/30 08:16:39;;;;;;;0.10;0.10;;;;;;;;;;5082604;28;20044;-87
2022/09/30 08:19:05;;;;;;;0.10;0.10;;;;;;;;;;5079228;28;20063;-87
2022/09/30 08:21:31;;;;;;;0.10;0.10;;;;;;;;;;5095802;28;20044;-88
2022/09/30 08:23:57;;;;;;;0.10;0.10;;;;;;;;;;5095471;28;20040;-88
2022/09/30 08:26:23;;;;;;;0.10;0.10;;;;;;;;;;5028542;28;20053;-89
2022/09/30 08:28:49;;;;;;;0.10;0.10;;;;;;;;;;5018655;28;20041;-89
2022/09/30 08:31:16;;;;;;;0.10;0.10;;;;;;;;;;5018695;28;20059;-88
2022/09/30 08:33:42;;;;;;;0.22;0.20;;;;;;;;;;5018760;28;20041;-89
2022/09/30 08:36:13;;;;;;;0.10;0.10;;;;;;;;;;5018665;28;20123;-89
2022/09/30 08:38:39;;;;;;;0.10;0.10;;;;;;;;;;5018522;28;20416;-88
2022/09/30 08:41:11;;;;;;;0.10;0.10;;;;;;;;;;5018533;28;20037;-90
2022/09/30 08:43:43;;;;;;;0.10;0.10;;;;;;;;;;5051632;28;20055;-91
2022/09/30 08:46:12;;;;;;;0.10;0.10;;;;;;;;;;5051480;28;20063;-90
2022/09/30 08:48:41;;;;;;;0.10;0.10;;;;;;;;;;5034827;28;20480;-91
2022/09/30 08:51:19;;;;;;;0.10;0.10;;;;;;;;;;5018191;28;20442;-91
2022/09/30 08:53:45;;;;;;;0.10;0.10;;;;;;;;;;5034423;28;20044;-92
2022/09/30 08:56:30;;;;;;;0.10;0.10;;;;;;;;;;5018148;28;20041;-92
2022/09/30 08:58:57;;;;;;;0.10;0.10;;;;;;;;;;5035056;28;20130;-88
2022/09/30 09:01:29;;;;;;;0.10;0.10;;;;;;;;;;5034930;28;20396;-90
2022/09/30 09:03:56;;;;;;;0.10;0.10;;;;;;;;;;5034902;28;20044;-89
2022/09/30 09:06:22;;;;;;;0.10;0.10;;;;;;;;;;5034568;28;20076;-90
2022/09/30 09:09:07;;;;;;;0.10;0.10;;;;;;;;;;5051212;28;20081;-89
2022/09/30 09:11:36;;;;;;;0.10;0.10;;;;;;;;;;5034758;28;20044;-87
2022/09/30 09:14:02;;;;;;;0.10;0.10;;;;;;;;;;5035088;28;20488;-91
2022/09/30 09:16:35;;;;;;;0.10;0.10;;;;;;;;;;5031667;28;20048;-90
2022/09/30 09:19:11;;;;;;;0.10;0.10;;;;;;;;;;5047123;28;20064;-89
2022/09/30 09:21:43;;;;;;;0.10;0.10;;;;;;;;;;5028110;28;20100;-89
2022/09/30 09:24:15;;;;;;;0.10;0.10;;;;;;;;;;5070323;28;20036;-91
2022/09/30 09:26:41;;;;;;;0.10;0.10;;;;;;;;;;5041132;28;20041;-88
2022/09/30 09:29:07;;;;;;;0.10;0.10;;;;;;;;;;5043665;28;20052;-89
2022/09/30 09:31:33;;;;;;;0.10;0.10;;;;;;;;;;5034725;28;20057;-90
2022/09/30 09:34:01;;;;;;;0.10;0.10;;;;;;;;;;5034394;28;20132;-91
2022/09/30 09:36:45;;;;;;;0.20;0.20;;;;;;;;;;5034665;28;20506;-91
2022/09/30 09:39:44;;;;;;;0.10;0.10;;;;;;;;;;5050867;28;20044;-88
2022/09/30 09:42:13;;;;;;;0.20;0.20;;;;;;;;;;4997173;28;20068;-89
2022/09/30 09:44:41;;;;;;;0.22;0.22;;;;;;;;;;5033997;28;20488;-89
2022/09/30 09:47:15;;;;;;;0.10;0.10;;;;;;;;;;5017324;28;20045;-89
2022/09/30 09:49:44;;;;;;;0.10;0.10;;;;;;;;;;5019113;28;20044;-89
2022/09/30 09:52:13;;;;;;;0.10;0.10;;;;;;;;;;5034872;28;20052;-90
2022/09/30 09:54:40;;;;;;;0.20;0.20;;;;;;;;;;5033969;28;20073;-89
2022/09/30 09:57:13;;;;;;;0.10;0.10;;;;;;;;;;5034051;28;20045;-91
2022/09/30 09:59:58;;;;;;;0.10;0.10;;;;;;;;;;5034577;28;20382;-90
2022/09/30 10:02:28;;;;;;;0.10;0.10;;;;;;;;;;5033749;28;20040;-90
2022/09/30 10:05:00;;;;;;;0.10;0.10;;;;;;;;;;5033912;28;20047;-92
2022/09/30 10:07:30;;;;;;;0.10;0.10;;;;;;;;;;5018869;28;20183;-94
2022/09/30 10:10:16;;;;;;;0.15;0.15;;;;;;;;;;5034069;28;20286;-93
2022/09/30 10:13:02;;;;;;;0.10;0.10;;;;;;;;;;5017693;28;20041;-96
2022/09/30 10:15:28;;;;;;;0.10;0.10;;;;;;;;;;5033592;28;20080;-91
2022/09/30 10:17:55;;;;;;;0.10;0.10;;;;;;;;;;5033692;28;20142;-92
2022/09/30 10:20:27;;;;;;;0.10;0.10;;;;;;;;;;5031475;28;20472;-90
2022/09/30 10:22:59;;;;;;;0.10;0.10;;;;;;;;;;5034326;28;20535;-89
2022/09/30 10:25:25;;;;;;;0.10;0.10;;;;;;;;;;5017278;28;20048;-90
2022/09/30 10:27:51;;;;;;;0.10;0.10;;;;;;;;;;5033689;28;20037;-90
2022/09/30 10:30:30;;;;;;;0.10;0.10;;;;;;;;;;5050686;28;20498;-94
2022/09/30 10:32:56;;;;;;;0.10;0.10;;;;;;;;;;5017095;28;20044;-93
2022/09/30 10:35:22;;;;;;;0.20;0.20;;;;;;;;;;5034690;28;20468;-89
2022/09/30 10:37:52;;;;;;;0.10;0.10;;;;;;;;;;5054023;28;20041;-90
2022/09/30 10:40:18;;;;;;;0.10;0.10;;;;;;;;;;5021177;28;20083;-89
2022/09/30 10:42:45;;;;;;;0.10;0.10;;;;;;;;;;5021023;28;20389;-89
2022/09/30 10:45:21;;;;;;;0.10;0.10;;;;;;;;;;5037016;28;20048;-92
2022/09/30 10:47:48;;;;;;;0.10;0.10;;;;;;;;;;5036819;28;20614;-94
2022/09/30 10:50:16;;;;;;;0.10;0.10;;;;;;;;;;5020556;28;20041;-91
2022/09/30 10:53:00;;;;;;;0.45;0.45;;;;;;;;;;5021022;28;20094;-92
2022/09/30 10:55:40;;;;;;;0.10;0.10;;;;;;;;;;5036701;28;20037;-93
2022/09/30 10:58:25;;;;;;;0.10;0.10;;;;;;;;;;5020708;28;20033;-92
2022/09/30 11:00:53;;;;;;;0.10;0.10;;;;;;;;;;5053604;28;20037;-90
2022/09/30 11:03:20;;;;;;;0.20;0.20;;;;;;;;;;5037350;28;20036;-91
2022/09/30 11:05:46;;;;;;;0.10;0.10;;;;;;;;;;5020441;28;20076;-90
2022/09/30 11:08:22;;;;;;;0.55;0.55;;;;;;;;;;5020196;28;20424;-88
2022/09/30 11:11:09;;;;;;;0.20;0.20;;;;;;;;;;5020357;28;20488;-90
2022/09/30 11:13:56;;;;;;;0.40;0.40;;;;;;;;;;5036650;28;20048;-91
2022/09/30 11:16:37;;;;;;;0.47;0.47;;;;;;;;;;5036973;28;20087;-91
2022/09/30 11:19:07;;;;;;;0.32;0.32;;;;;;;;;;5036716;28;20087;-91
2022/09/30 11:21:39;;;;;;;0.20;0.20;;;;;;;;;;5036646;28;20037;-91
2022/09/30 11:24:11;;;;;;;0.10;0.10;;;;;;;;;;5034677;28;20039;-91
2022/09/30 11:26:43;;;;;;;0.20;0.20;;;;;;;;;;5036287;28;20094;-91
2022/09/30 11:29:12;;;;;;;0.20;0.20;;;;;;;;;;5036156;28;20041;-89
2022/09/30 11:31:54;;;;;;;0.20;0.20;;;;;;;;;;5019545;28;20569;-90
2022/09/30 11:34:24;;;;;;;0.10;0.10;;;;;;;;;;5019819;28;20044;-91
2022/09/30 11:36:49;;;;;;;0.17;0.17;;;;;;;;;;5036138;28;20037;-90
2022/09/30 11:39:28;;;;;;;0.10;0.10;;;;;;;;;;5035876;28;20033;-90
2022/09/30 11:42:30;;;;;;;0.20;0.20;;;;;;;;;;5036187;28;20133;-92
2022/09/30 11:45:17;;;;;;;0.20;0.20;;;;;;;;;;4956852;28;20043;-92
2022/09/30 11:47:49;;;;;;;0.20;0.20;;;;;;;;;;4992278;28;20070;-92
2022/09/30 11:50:23;;;;;;;0.10;0.10;;;;;;;;;;5035159;28;20037;-92
2022/09/30 11:52:59;;;;;;;0.10;0.10;;;;;;;;;;5035312;28;20602;-92
2022/09/30 11:55:51;;;;;;;0.10;0.10;;;;;;;;;;5035477;28;20132;-91
2022/09/30 11:58:18;;;;;;;0.10;0.10;;;;;;;;;;5032089;28;20488;-92
2022/09/30 12:00:46;;;;;;;0.10;0.10;;;;;;;;;;5019007;28;20044;-92
2022/09/30 12:03:16;;;;;;;0.10;0.10;;;;;;;;;;5036052;28;20373;-88
2022/09/30 12:05:43;;;;;;;0.10;0.10;;;;;;;;;;5036123;28;20510;-91
2022/09/30 12:08:09;;;;;;;0.10;0.10;;;;;;;;;;5035822;28;20202;-91
2022/09/30 12:10:52;;;;;;;0.10;0.10;;;;;;;;;;5034930;28;20044;-90
2022/09/30 12:13:21;;;;;;;0.10;0.10;;;;;;;;;;5019086;28;20044;-91
2022/09/30 12:15:47;;;;;;;0.10;0.10;;;;;;;;;;5051747;28;20048;-89
2022/09/30 12:18:14;;;;;;;0.10;0.10;;;;;;;;;;5019358;28;20041;-89
2022/09/30 12:20:45;;;;;;;0.10;0.10;;;;;;;;;;5035188;28;20045;-88
2022/09/30 12:23:14;;;;;;;0.10;0.10;;;;;;;;;;5018916;28;20045;-88
2022/09/30 12:25:41;;;;;;;0.28;0.28;;;;;;;;;;5051618;28;20037;-89
2022/09/30 12:31:08;;;;;;;0.10;0.10;;;;;;;;;;5068487;28;20053;-89
2022/09/30 12:33:40;;;;;;;0.10;0.10;;;;;;;;;;5019009;28;20408;-88
2022/09/30 12:36:12;;;;;;;0.10;0.10;;;;;;;;;;5034992;28;20610;-89
2022/09/30 12:38:48;;;;;;;0.10;0.10;;;;;;;;;;5035777;28;20076;-89
2022/09/30 12:41:32;;;;;;;0.10;0.10;;;;;;;;;;5034821;28;20094;-91
2022/09/30 12:44:05;;;;;;;0.10;0.10;;;;;;;;;;5035322;28;20045;-90
2022/09/30 12:46:47;;;;;;;0.10;0.10;;;;;;;;;;5018444;28;20485;-90
2022/09/30 12:49:16;;;;;;;0.10;0.10;;;;;;;;;;5034712;28;20045;-89
2022/09/30 12:51:43;;;;;;;0.10;0.10;;;;;;;;;;5034681;28;20047;-89
2022/09/30 12:54:09;;;;;;;0.10;0.10;;;;;;;;;;5034804;28;20514;-89
2022/09/30 12:56:36;;;;;;;0.10;0.10;;;;;;;;;;5051800;28;20120;-89
2022/09/30 12:59:03;;;;;;;0.10;0.10;;;;;;;;;;5034352;28;20068;-89
2022/09/30 13:01:35;;;;;;;0.10;0.10;;;;;;;;;;5018084;28;20496;-92
2022/09/30 13:04:01;;;;;;;0.10;0.10;;;;;;;;;;5034582;28;20052;-90
2022/09/30 13:06:27;;;;;;;0.10;0.10;;;;;;;;;;5051115;28;20045;-90
2022/09/30 13:08:57;;;;;;;0.10;0.10;;;;;;;;;;5018186;28;20102;-91
2022/09/30 13:11:35;;;;;;;0.20;0.20;;;;;;;;;;5050951;28;20051;-90
2022/09/30 13:14:12;;;;;;;0.10;0.10;;;;;;;;;;5034247;28;20170;-90
2022/09/30 13:16:57;;;;;;;0.10;0.10;;;;;;;;;;5018031;28;20037;-90
2022/09/30 13:19:30;;;;;;;0.10;0.10;;;;;;;;;;5017830;28;20048;-91
2022/09/30 13:22:14;;;;;;;0.10;0.10;;;;;;;;;;5017705;28;20041;-91
2022/09/30 13:24:59;;;;;;;0.10;0.10;;;;;;;;;;5050629;28;20044;-91
2022/09/30 13:27:37;;;;;;;0.10;0.10;;;;;;;;;;5034246;28;20041;-91
2022/09/30 13:30:27;;;;;;;0.10;0.10;;;;;;;;;;5034155;28;20542;-91
2022/09/30 13:33:01;;;;;;;0.10;0.10;;;;;;;;;;5021190;28;20060;-93
2022/09/30 13:35:36;;;;;;;0.10;0.10;;;;;;;;;;5034506;28;20059;-92
2022/09/30 13:38:11;;;;;;;0.10;0.10;;;;;;;;;;5034265;28;20041;-92
2022/09/30 13:40:41;;;;;;;0.10;0.10;;;;;;;;;;5034363;28;20045;-92
2022/09/30 13:43:07;;;;;;;0.20;0.20;;;;;;;;;;5018048;28;20045;-90
2022/09/30 13:45:35;;;;;;;0.20;0.20;;;;;;;;;;5017546;28;20087;-90
2022/09/30 13:48:14;;;;;;;0.10;0.10;;;;;;;;;;5035013;28;20052;-89
2022/09/30 13:50:45;;;;;;;0.13;0.13;;;;;;;;;;5017243;28;20171;-90
2022/09/30 13:53:12;;;;;;;0.10;0.10;;;;;;;;;;5033812;28;20076;-90
2022/09/30 13:55:44;;;;;;;0.10;0.10;;;;;;;;;;5017988;28;20357;-92
2022/09/30 13:58:25;;;;;;;0.20;0.20;;;;;;;;;;5017738;28;20123;-90
2022/09/30 14:01:00;;;;;;;0.22;0.22;;;;;;;;;;5066699;28;20053;-89
2022/09/30 14:03:44;;;;;;;0.30;0.30;;;;;;;;;;5017855;28;20052;-95
2022/09/30 14:06:16;;;;;;;0.10;0.10;;;;;;;;;;5033650;28;20045;-92
2022/09/30 14:08:51;;;;;;;0.10;0.10;;;;;;;;;;5017200;28;20088;-92
2022/09/30 14:11:36;;;;;;;0.10;0.10;;;;;;;;;;5054401;28;20037;-91
2022/09/30 14:14:21;;;;;;;0.10;0.10;;;;;;;;;;5036595;28;20164;-91
2022/09/30 14:16:47;;;;;;;0.20;0.20;;;;;;;;;;5020048;28;20037;-89
2022/09/30 14:19:41;;;;;;;0.10;0.10;;;;;;;;;;5053988;28;20086;-92
2022/09/30 14:22:07;;;;;;;0.20;0.20;;;;;;;;;;5050426;28;20095;-93
2022/09/30 14:24:35;;;;;;;0.38;0.38;;;;;;;;;;5021272;28;20156;-90
2022/09/30 14:27:14;;;;;;;0.30;0.30;;;;;;;;;;5020835;28;20076;-95
2022/09/30 14:29:43;;;;;;;0.10;0.10;;;;;;;;;;5037854;28;20041;-91
2022/09/30 14:32:10;;;;;;;0.20;0.20;;;;;;;;;;5053717;28;20369;-92
2022/09/30 14:34:39;;;;;;;0.28;0.28;;;;;;;;;;5021373;28;20048;-95
2022/09/30 14:37:10;;;;;;;0.75;0.20;;;;;;;;;;5054082;28;20093;-92
2022/09/30 14:39:37;;;;;;;0.13;0.13;;;;;;;;;;5037773;28;20545;-94
2022/09/30 14:42:03;;;;;;;0.28;0.28;;;;;;;;;;5021256;28;20090;-95
2022/09/30 14:44:33;;;;;;;0.65;0.65;;;;;;;;;;5021413;28;20094;-94
2022/09/30 14:47:00;;;;;;;0.20;0.20;;;;;;;;;;5021010;28;20044;-93
2022/09/30 14:49:31;;;;;;;0.52;0.52;;;;;;;;;;5020936;28;20036;-94
2022/09/30 14:51:59;;;;;;;0.10;0.10;;;;;;;;;;5021709;28;20074;-93
2022/09/30 14:54:27;;;;;;;0.10;0.10;;;;;;;;;;5022856;28;20076;-96
2022/09/30 14:56:54;;;;;;;0.10;0.10;;;;;;;;;;5027718;28;20044;-96
2022/09/30 14:59:38;;;;;;;0.13;0.13;;;;;;;;;;5021201;28;20041;-94
2022/09/30 15:02:36;;;;;;;0.20;0.20;;;;;;;;;;5023445;28;20049;-96
2022/09/30 15:05:03;;;;;;;0.10;0.10;;;;;;;;;;5016969;28;20085;-93